Najaf, Iraq
Current Conditions -  °F | °C
As of 7:00 AM on Thursday 23 Oct 2014 (Local Time) from ORNI Reporting Station
Smoke Smoke  
Wind Chill: 59°   Ceiling: Unl
Heat Index: 59°   Visibility: 1.8mi
Dew Point: 46°   Wind: 0mph
Humidity: 63%   Direction: NA
Pressure: 29.94"   Gusts: NA
Location:  31.98°N, 44.32°E
Report Text: ORNI 230400Z 00000KT 3000 FU NSC 15/08 Q1014 NOSIG
Loading
Personal Weather Stations






























Interactive Weather Map New forecast layout! Learn more

10-Day Weather Forecast

Advertisements
Track Severe Weather on mobile